Time;durP1;ratioP1;P1;durP2;ratioP2;P2;SDS_P1;SDS_P2;PMS_P1;PMS_P2;Temp;Humidity;BMP_temperature;BMP_pressure;BME280_temperature;BME280_humidity;BME280_pressure;Samples;Min_cycle;Max_cycle;Signal;HPM_P1;HPM_P2
2022/03/22 00:01:27;;;;;;;17.13;11.30;;;8.80;50.20;;;;;;5012057;28;20040;-70
2022/03/22 00:03:53;;;;;;;18.23;11.50;;;8.80;50.00;;;;;;5010137;28;20120;-71
2022/03/22 00:06:19;;;;;;;20.73;11.80;;;8.80;49.90;;;;;;5030163;28;20087;-70
2022/03/22 00:08:45;;;;;;;17.85;11.00;;;8.70;49.80;;;;;;5010094;28;20175;-71
2022/03/22 00:11:11;;;;;;;18.52;11.02;;;8.80;50.00;;;;;;5027722;28;20037;-71
2022/03/22 00:13:49;;;;;;;19.08;11.32;;;8.70;49.80;;;;;;5012580;28;20132;-70
2022/03/22 00:16:15;;;;;;;16.77;11.18;;;8.70;50.10;;;;;;5028390;28;20109;-69
2022/03/22 00:18:41;;;;;;;15.77;10.50;;;8.60;50.00;;;;;;5028241;28;20010;-70
2022/03/22 00:21:06;;;;;;;17.98;11.13;;;8.60;49.90;;;;;;5030314;28;20508;-71
2022/03/22 00:23:33;;;;;;;18.98;11.70;;;8.60;50.00;;;;;;5028474;28;20037;-71
2022/03/22 00:26:00;;;;;;;17.98;10.18;;;8.60;50.20;;;;;;5011502;28;20028;-70
2022/03/22 00:28:26;;;;;;;16.60;11.13;;;8.60;50.20;;;;;;5003725;28;20523;-69
2022/03/22 00:30:51;;;;;;;18.02;11.60;;;8.60;50.50;;;;;;5027928;28;20033;-70
2022/03/22 00:33:17;;;;;;;22.45;12.48;;;8.60;50.30;;;;;;5010136;28;20025;-70
2022/03/22 00:35:42;;;;;;;15.95;10.60;;;8.60;50.40;;;;;;5029239;28;20482;-70
2022/03/22 00:38:16;;;;;;;19.33;11.70;;;8.60;50.40;;;;;;4995179;28;20049;-70
2022/03/22 00:40:42;;;;;;;19.77;11.63;;;8.60;50.30;;;;;;5009917;28;20358;-70
2022/03/22 00:43:09;;;;;;;16.75;11.40;;;8.50;50.40;;;;;;5026257;28;20033;-70
2022/03/22 00:45:36;;;;;;;18.52;11.98;;;8.50;50.30;;;;;;5028265;28;20040;-70
2022/03/22 00:48:05;;;;;;;19.90;11.48;;;8.50;50.30;;;;;;5029300;28;20029;-69
2022/03/22 00:50:35;;;;;;;18.98;11.27;;;8.50;50.30;;;;;;5028130;28;20033;-69
2022/03/22 00:53:04;;;;;;;19.45;12.00;;;8.50;50.40;;;;;;5028238;28;20029;-68
2022/03/22 00:55:31;;;;;;;21.92;11.57;;;8.50;50.40;;;;;;5028117;28;20032;-69
2022/03/22 00:57:57;;;;;;;19.98;11.27;;;8.50;50.30;;;;;;5027936;28;20056;-69
2022/03/22 01:00:24;;;;;;;19.05;11.27;;;8.50;50.40;;;;;;5025940;28;20049;-69
2022/03/22 01:02:51;;;;;;;15.70;10.68;;;8.50;50.60;;;;;;5026375;28;20029;-70
2022/03/22 01:05:19;;;;;;;16.90;10.93;;;8.50;50.60;;;;;;5028444;28;20026;-69
2022/03/22 01:07:50;;;;;;;15.85;10.57;;;8.50;50.60;;;;;;5028500;28;20059;-69
2022/03/22 01:10:18;;;;;;;20.23;11.63;;;8.40;50.60;;;;;;5027064;28;20059;-69
2022/03/22 01:12:45;;;;;;;18.90;11.50;;;8.40;50.70;;;;;;5026491;28;20441;-69
2022/03/22 01:15:18;;;;;;;17.70;11.20;;;8.40;50.90;;;;;;5025665;28;20068;-69
2022/03/22 01:17:45;;;;;;;19.83;11.15;;;8.40;50.60;;;;;;5010620;28;20068;-70
2022/03/22 01:20:12;;;;;;;17.83;11.35;;;8.30;50.80;;;;;;5026516;28;20036;-69
2022/03/22 01:22:40;;;;;;;18.30;11.60;;;8.30;50.90;;;;;;5027142;28;20052;-69
2022/03/22 01:25:13;;;;;;;19.15;11.77;;;8.30;51.10;;;;;;5008190;28;20025;-70
2022/03/22 01:27:40;;;;;;;21.23;11.85;;;8.30;51.10;;;;;;5008194;28;20093;-69
2022/03/22 01:30:07;;;;;;;18.05;11.32;;;8.30;51.10;;;;;;5010942;28;20152;-70
2022/03/22 01:32:34;;;;;;;17.20;11.25;;;8.30;51.10;;;;;;5026102;28;20041;-70
2022/03/22 01:35:01;;;;;;;17.67;11.25;;;8.30;51.10;;;;;;5028180;28;20492;-69
2022/03/22 01:37:27;;;;;;;18.40;11.15;;;8.30;51.30;;;;;;5028390;28;20044;-69
2022/03/22 01:39:52;;;;;;;14.32;10.63;;;8.30;51.30;;;;;;5010073;28;20026;-69
2022/03/22 01:42:18;;;;;;;18.25;11.27;;;8.30;51.40;;;;;;5025013;28;20116;-70
2022/03/22 01:44:44;;;;;;;17.80;10.82;;;8.30;51.50;;;;;;5026722;28;20048;-69
2022/03/22 01:47:10;;;;;;;19.00;11.50;;;8.20;51.40;;;;;;5009453;28;20094;-70
2022/03/22 01:49:36;;;;;;;16.67;10.77;;;8.20;51.60;;;;;;5003897;28;20307;-69
2022/03/22 01:52:03;;;;;;;17.95;10.68;;;8.20;51.70;;;;;;5026340;28;20087;-69
2022/03/22 01:54:29;;;;;;;19.48;11.48;;;8.20;51.90;;;;;;5010084;28;20021;-69
2022/03/22 01:56:54;;;;;;;19.88;12.13;;;8.20;51.80;;;;;;5027278;28;20038;-69
2022/03/22 01:59:20;;;;;;;17.17;11.48;;;8.20;51.70;;;;;;5024929;28;20025;-69
2022/03/22 02:07:15;;;;;;;18.48;11.15;;;8.10;51.70;;;;;;5026213;28;20037;-69
2022/03/22 02:09:41;;;;;;;18.65;10.63;;;8.10;51.80;;;;;;5009641;28;20026;-70
2022/03/22 02:12:09;;;;;;;17.83;11.85;;;8.10;52.00;;;;;;5026536;28;20496;-70
2022/03/22 02:14:35;;;;;;;32.15;12.45;;;8.10;52.00;;;;;;5003517;28;20028;-70
2022/03/22 02:17:08;;;;;;;18.13;11.90;;;8.00;52.00;;;;;;5024708;28;20026;-70
2022/03/22 02:19:38;;;;;;;19.17;11.82;;;8.00;52.10;;;;;;5025024;28;20032;-70
2022/03/22 02:22:07;;;;;;;16.90;10.15;;;8.00;52.30;;;;;;5025927;28;20037;-70
2022/03/22 02:24:33;;;;;;;16.13;11.07;;;8.00;52.40;;;;;;5026670;28;20710;-70
2022/03/22 02:26:59;;;;;;;16.40;10.93;;;8.00;52.50;;;;;;5026023;28;20044;-69
2022/03/22 02:29:24;;;;;;;19.65;10.73;;;8.00;52.50;;;;;;5027774;28;20021;-71
2022/03/22 02:31:53;;;;;;;21.48;11.27;;;8.00;52.50;;;;;;5029509;28;20826;-70
2022/03/22 02:34:19;;;;;;;16.48;11.10;;;8.00;52.60;;;;;;5029301;28;20032;-69
2022/03/22 02:36:46;;;;;;;19.42;11.30;;;8.00;52.70;;;;;;5028407;28;20022;-69
2022/03/22 02:39:12;;;;;;;16.73;11.63;;;8.00;52.80;;;;;;5030960;28;20101;-71
2022/03/22 02:41:37;;;;;;;18.20;11.25;;;8.00;52.90;;;;;;5029535;28;20040;-69
2022/03/22 02:44:04;;;;;;;18.65;11.80;;;8.00;52.90;;;;;;5031292;28;20033;-70
2022/03/22 02:46:29;;;;;;;17.48;10.98;;;7.90;52.80;;;;;;5012535;28;20033;-69
2022/03/22 02:48:55;;;;;;;17.02;10.65;;;7.90;53.00;;;;;;5013200;28;20043;-70
2022/03/22 02:51:20;;;;;;;19.77;12.10;;;7.90;52.90;;;;;;5029213;28;20555;-69
2022/03/22 02:53:46;;;;;;;17.00;11.10;;;7.90;53.00;;;;;;4995965;28;20013;-70
2022/03/22 02:56:12;;;;;;;19.70;11.68;;;7.90;53.10;;;;;;5013165;28;20468;-71
2022/03/22 02:58:39;;;;;;;20.27;11.07;;;7.90;53.10;;;;;;5033791;28;20029;-70
2022/03/22 03:01:04;;;;;;;20.48;12.02;;;7.90;53.20;;;;;;5011974;28;20036;-70
2022/03/22 03:03:33;;;;;;;18.17;11.43;;;7.80;53.20;;;;;;5028838;28;20017;-71
2022/03/22 03:06:00;;;;;;;16.38;10.82;;;7.80;53.30;;;;;;5013442;28;20037;-70
2022/03/22 03:08:26;;;;;;;16.33;10.70;;;7.80;53.40;;;;;;5012405;28;20029;-69
2022/03/22 03:10:53;;;;;;;19.65;11.23;;;7.80;53.60;;;;;;5029173;28;20112;-70
2022/03/22 03:13:20;;;;;;;17.75;11.68;;;7.70;53.80;;;;;;5030937;28;20439;-70
2022/03/22 03:15:47;;;;;;;16.67;11.98;;;7.70;53.90;;;;;;5011178;28;20036;-70
2022/03/22 03:18:13;;;;;;;19.33;11.50;;;7.70;53.90;;;;;;5028859;28;20033;-70
2022/03/22 03:20:39;;;;;;;16.48;11.32;;;7.70;54.70;;;;;;5012129;28;20052;-71
2022/03/22 03:23:05;;;;;;;18.42;11.90;;;7.70;54.30;;;;;;5011700;28;20113;-71
2022/03/22 03:25:31;;;;;;;18.27;11.77;;;7.70;54.50;;;;;;5011649;28;20116;-70
2022/03/22 03:27:56;;;;;;;18.10;11.80;;;7.70;54.40;;;;;;5011134;28;20102;-69
2022/03/22 03:30:22;;;;;;;20.27;11.63;;;7.70;54.40;;;;;;5030410;28;20048;-69
2022/03/22 03:32:48;;;;;;;19.67;12.07;;;7.60;54.70;;;;;;5029949;28;20095;-70
2022/03/22 03:35:14;;;;;;;16.67;10.88;;;7.60;54.80;;;;;;5029780;28;20031;-72
2022/03/22 03:37:43;;;;;;;17.45;11.40;;;7.60;54.80;;;;;;5010810;28;20053;-70
2022/03/22 03:40:10;;;;;;;16.08;10.77;;;7.60;54.90;;;;;;5029705;28;20093;-70
2022/03/22 03:42:42;;;;;;;18.60;11.63;;;7.60;54.90;;;;;;5008409;28;20033;-69
2022/03/22 03:47:55;;;;;;;17.67;10.40;;;7.60;55.30;;;;;;5030060;28;20512;-69
2022/03/22 03:50:39;;;;;;;18.63;11.13;;;7.50;55.20;;;;;;5030306;28;20115;-70
2022/03/22 03:53:05;;;;;;;18.67;12.02;;;7.50;55.40;;;;;;5012864;28;20485;-71
2022/03/22 03:55:30;;;;;;;21.00;11.25;;;7.50;55.50;;;;;;5030234;28;20026;-71
2022/03/22 03:57:56;;;;;;;17.50;10.95;;;7.50;55.40;;;;;;5011659;28;20116;-71
2022/03/22 04:00:23;;;;;;;20.10;12.32;;;7.50;55.40;;;;;;5026669;28;20501;-72
2022/03/22 04:02:49;;;;;;;19.55;11.77;;;7.50;55.70;;;;;;5029902;28;20115;-70
2022/03/22 04:05:15;;;;;;;19.95;11.98;;;7.40;55.50;;;;;;5031037;28;20576;-70
2022/03/22 04:07:41;;;;;;;21.42;12.38;;;7.50;55.70;;;;;;5029395;28;20025;-70
2022/03/22 04:10:07;;;;;;;19.02;11.65;;;7.40;55.80;;;;;;4995361;28;20033;-70
2022/03/22 04:12:40;;;;;;;21.00;12.57;;;7.40;55.90;;;;;;5006299;28;20025;-70
2022/03/22 04:15:06;;;;;;;19.33;13.00;;;7.30;55.80;;;;;;5013265;28;20544;-72
2022/03/22 04:17:32;;;;;;;22.48;12.48;;;7.30;55.80;;;;;;5032607;28;20053;-70
2022/03/22 04:19:58;;;;;;;18.00;11.63;;;7.30;56.10;;;;;;5030262;28;20033;-70
2022/03/22 04:22:23;;;;;;;17.55;11.48;;;7.30;56.10;;;;;;5029683;28;20640;-70
2022/03/22 04:25:08;;;;;;;18.35;11.38;;;7.30;56.20;;;;;;5029860;28;20040;-71
2022/03/22 04:33:21;;;;;;;19.67;11.90;;;7.20;56.70;;;;;;5009301;28;20026;-70
2022/03/22 04:35:47;;;;;;;18.52;11.70;;;7.20;56.60;;;;;;5011263;28;20025;-69
2022/03/22 04:38:13;;;;;;;21.25;11.90;;;7.20;56.60;;;;;;5011076;28;20109;-71
2022/03/22 04:40:39;;;;;;;18.17;11.98;;;7.10;56.90;;;;;;5029559;28;20254;-70
2022/03/22 04:43:06;;;;;;;18.30;11.68;;;7.10;57.00;;;;;;5027743;28;20102;-71
2022/03/22 04:45:32;;;;;;;24.33;12.60;;;7.10;57.00;;;;;;5028008;28;20057;-70
2022/03/22 04:47:58;;;;;;;20.38;12.60;;;7.10;57.10;;;;;;5009469;28;20056;-71
2022/03/22 04:50:23;;;;;;;19.23;12.52;;;7.10;57.20;;;;;;5026367;28;20035;-70
2022/03/22 04:58:18;;;;;;;18.05;12.02;;;7.00;57.30;;;;;;5028467;28;20025;-71
2022/03/22 05:00:43;;;;;;;18.75;12.13;;;7.00;57.20;;;;;;5028226;28;20033;-70
2022/03/22 05:03:09;;;;;;;18.50;11.55;;;7.00;57.20;;;;;;5010435;28;20473;-70
2022/03/22 05:08:20;;;;;;;17.52;11.13;;;7.00;57.30;;;;;;5027368;28;20425;-72
2022/03/22 05:10:46;;;;;;;19.33;12.25;;;7.00;57.60;;;;;;5010335;28;20032;-70
2022/03/22 05:13:11;;;;;;;20.77;12.48;;;7.00;57.40;;;;;;5026637;28;20040;-69
2022/03/22 05:15:38;;;;;;;20.30;11.57;;;7.00;57.30;;;;;;5027757;28;20100;-70
2022/03/22 05:18:04;;;;;;;17.55;12.18;;;7.00;57.10;;;;;;5027275;28;20657;-70
2022/03/22 05:20:30;;;;;;;20.40;12.90;;;7.00;57.00;;;;;;5027638;28;20570;-70
2022/03/22 05:22:58;;;;;;;20.20;12.13;;;7.00;57.00;;;;;;5011025;28;20064;-69
2022/03/22 05:25:24;;;;;;;20.30;12.38;;;6.90;57.10;;;;;;5009259;28;20079;-72
2022/03/22 05:27:50;;;;;;;19.77;12.07;;;6.90;57.10;;;;;;5008538;28;20025;-69
2022/03/22 05:30:15;;;;;;;21.73;12.10;;;6.90;57.10;;;;;;5009617;28;20814;-69
2022/03/22 05:32:41;;;;;;;21.52;12.85;;;6.90;57.00;;;;;;5028440;28;20033;-70
2022/03/22 05:35:07;;;;;;;20.95;11.63;;;6.90;56.90;;;;;;5008079;28;20024;-70
2022/03/22 05:37:32;;;;;;;21.83;12.80;;;6.90;56.90;;;;;;4994127;28;20481;-70
2022/03/22 05:39:58;;;;;;;17.90;11.32;;;6.90;57.10;;;;;;5009038;28;20067;-70
2022/03/22 05:42:25;;;;;;;18.77;11.27;;;6.90;57.00;;;;;;5026985;28;20029;-69
2022/03/22 05:44:52;;;;;;;20.77;11.90;;;6.90;57.10;;;;;;5027045;28;20033;-70
2022/03/22 05:47:18;;;;;;;26.77;12.20;;;6.90;56.90;;;;;;5024077;28;20029;-70
2022/03/22 05:49:43;;;;;;;21.30;12.93;;;6.90;56.90;;;;;;5023625;28;20423;-70
2022/03/22 05:52:09;;;;;;;19.13;12.02;;;6.90;57.20;;;;;;5008827;28;20087;-69
2022/03/22 05:54:35;;;;;;;19.40;12.27;;;6.90;57.10;;;;;;5026586;28;20021;-70
2022/03/22 05:57:00;;;;;;;22.92;12.80;;;6.90;57.00;;;;;;5007339;28;20468;-71
2022/03/22 05:59:26;;;;;;;21.20;13.32;;;6.90;57.10;;;;;;5004690;28;20029;-70
2022/03/22 06:01:52;;;;;;;21.70;11.98;;;6.90;57.00;;;;;;5019083;28;20065;-70
2022/03/22 06:04:19;;;;;;;21.77;11.73;;;6.90;57.00;;;;;;5007890;28;20523;-70
2022/03/22 06:06:47;;;;;;;18.88;11.52;;;6.90;56.90;;;;;;5024282;28;20092;-74
2022/03/22 06:09:15;;;;;;;20.60;12.13;;;7.00;56.90;;;;;;5007289;28;20532;-71
2022/03/22 06:11:41;;;;;;;21.80;13.05;;;7.00;56.90;;;;;;5023930;28;20045;-70
2022/03/22 06:14:07;;;;;;;23.27;11.93;;;7.00;56.80;;;;;;5005497;28;20021;-70
2022/03/22 06:16:34;;;;;;;21.40;11.35;;;7.00;56.80;;;;;;5020980;28;20755;-72
2022/03/22 06:19:00;;;;;;;20.63;12.75;;;7.10;56.90;;;;;;5021831;28;20059;-70
2022/03/22 06:21:26;;;;;;;19.30;12.20;;;7.10;57.00;;;;;;5018558;28;20061;-72
2022/03/22 06:23:52;;;;;;;20.05;12.13;;;7.10;57.40;;;;;;5022943;28;20030;-70
2022/03/22 06:26:18;;;;;;;23.02;13.15;;;7.10;57.00;;;;;;5006475;28;20477;-71
2022/03/22 06:28:44;;;;;;;19.90;11.93;;;7.10;57.00;;;;;;5025119;28;20037;-71
2022/03/22 06:31:10;;;;;;;22.92;12.82;;;7.20;57.10;;;;;;5025646;28;20022;-70
2022/03/22 06:33:36;;;;;;;23.05;13.18;;;7.20;57.20;;;;;;5026578;28;20076;-70
2022/03/22 06:36:01;;;;;;;23.67;12.65;;;7.20;57.20;;;;;;5024824;28;20025;-70
2022/03/22 06:38:32;;;;;;;22.63;12.43;;;7.20;57.30;;;;;;5023045;28;20034;-70
2022/03/22 06:40:58;;;;;;;28.20;13.37;;;7.30;57.20;;;;;;5009645;28;20029;-70
2022/03/22 06:43:24;;;;;;;28.55;13.48;;;7.30;57.20;;;;;;5007058;28;20133;-70
2022/03/22 06:45:49;;;;;;;25.35;13.10;;;7.30;57.20;;;;;;5025485;28;20568;-71
2022/03/22 06:48:15;;;;;;;25.08;14.00;;;7.40;57.20;;;;;;5010340;28;20497;-71
2022/03/22 06:50:42;;;;;;;28.30;14.50;;;7.40;57.00;;;;;;5009538;28;20450;-73
2022/03/22 06:53:08;;;;;;;27.90;13.57;;;7.40;56.90;;;;;;5026890;28;20033;-70
2022/03/22 06:55:35;;;;;;;21.98;13.70;;;7.50;56.70;;;;;;5026839;28;20032;-70
2022/03/22 06:58:02;;;;;;;23.65;14.32;;;7.50;56.60;;;;;;5027699;28;20022;-71
2022/03/22 07:00:28;;;;;;;22.73;13.38;;;7.50;56.30;;;;;;5027470;28;20035;-71
2022/03/22 07:02:55;;;;;;;25.45;13.45;;;7.50;56.30;;;;;;5028779;28;20037;-74
2022/03/22 07:05:21;;;;;;;24.05;13.15;;;7.60;56.30;;;;;;5026924;28;20034;-70
2022/03/22 07:07:47;;;;;;;23.52;14.27;;;7.60;56.10;;;;;;5027737;28;20022;-71
2022/03/22 07:10:15;;;;;;;23.35;13.05;;;7.60;56.00;;;;;;5024794;28;20026;-70
2022/03/22 07:12:51;;;;;;;29.48;13.68;;;7.70;56.10;;;;;;5003555;28;20038;-73
2022/03/22 07:15:18;;;;;;;23.95;13.23;;;7.70;56.00;;;;;;5024999;28;20021;-70
2022/03/22 07:17:45;;;;;;;27.67;15.57;;;7.70;55.80;;;;;;5025797;28;20018;-71
2022/03/22 07:20:11;;;;;;;26.05;14.25;;;7.80;55.80;;;;;;5030674;28;20026;-72
2022/03/22 07:22:37;;;;;;;26.13;14.85;;;7.80;55.60;;;;;;5010714;28;20052;-70
2022/03/22 07:25:03;;;;;;;25.65;13.30;;;7.80;55.30;;;;;;4992304;28;20029;-70
2022/03/22 07:27:30;;;;;;;25.80;13.13;;;7.80;55.20;;;;;;5028578;28;20620;-70
2022/03/22 07:29:56;;;;;;;23.90;13.30;;;7.90;55.40;;;;;;5012150;28;20033;-70
2022/03/22 07:32:22;;;;;;;24.73;14.50;;;7.90;55.40;;;;;;5031317;28;20513;-70
2022/03/22 07:34:49;;;;;;;22.70;13.32;;;7.90;55.30;;;;;;5027654;28;20032;-71
2022/03/22 07:37:14;;;;;;;26.17;13.68;;;8.00;55.40;;;;;;5029395;28;20100;-71
2022/03/22 07:39:43;;;;;;;22.80;13.15;;;8.00;54.90;;;;;;5026567;28;20120;-71
2022/03/22 07:42:09;;;;;;;21.27;13.90;;;8.00;55.10;;;;;;5008000;28;20496;-70
2022/03/22 07:44:34;;;;;;;22.60;13.38;;;8.10;55.10;;;;;;5023374;28;20034;-73
2022/03/22 07:47:01;;;;;;;26.98;13.55;;;8.20;55.10;;;;;;5027779;28;20030;-70
2022/03/22 07:54:56;;;;;;;23.33;14.00;;;8.20;54.60;;;;;;5009726;28;20029;-72
2022/03/22 07:57:22;;;;;;;31.55;14.13;;;8.20;54.70;;;;;;5030166;28;20017;-70
2022/03/22 07:59:47;;;;;;;26.65;14.70;;;8.30;54.80;;;;;;5029090;28;20026;-71
2022/03/22 08:02:13;;;;;;;25.58;13.38;;;8.40;54.70;;;;;;5009824;28;20504;-72
2022/03/22 08:04:39;;;;;;;20.67;13.57;;;8.40;54.70;;;;;;5010771;28;20026;-72
2022/03/22 08:07:07;;;;;;;25.67;14.18;;;8.40;54.80;;;;;;5026211;28;20033;-73
2022/03/22 08:09:35;;;;;;;24.25;13.43;;;8.50;54.60;;;;;;4990002;28;20101;-73
2022/03/22 08:12:01;;;;;;;25.58;13.10;;;8.50;54.50;;;;;;5026735;28;20028;-70
2022/03/22 08:14:26;;;;;;;20.48;12.95;;;8.60;54.50;;;;;;4995896;28;20420;-74
2022/03/22 08:16:53;;;;;;;20.05;13.05;;;8.70;54.60;;;;;;5029423;28;20044;-72
2022/03/22 08:19:19;;;;;;;25.10;15.23;;;8.70;54.60;;;;;;5009722;28;20033;-72
2022/03/22 08:21:48;;;;;;;26.70;14.90;;;8.70;54.40;;;;;;5006794;28;20033;-73
2022/03/22 08:24:14;;;;;;;27.35;14.65;;;8.80;54.50;;;;;;5029396;28;20604;-73
2022/03/22 08:26:40;;;;;;;24.33;13.23;;;8.80;53.80;;;;;;5027261;28;20105;-73
2022/03/22 08:29:08;;;;;;;22.33;13.35;;;8.90;53.80;;;;;;5026762;28;20032;-71
2022/03/22 08:31:35;;;;;;;23.35;14.10;;;9.00;53.90;;;;;;5026805;28;20033;-71
2022/03/22 08:34:01;;;;;;;28.73;14.50;;;9.00;53.80;;;;;;5030172;28;20134;-71
2022/03/22 08:36:27;;;;;;;29.45;16.25;;;9.10;53.30;;;;;;5029764;28;20029;-70
2022/03/22 08:38:53;;;;;;;22.92;14.40;;;9.20;53.80;;;;;;5011855;28;20033;-71
2022/03/22 08:41:20;;;;;;;26.60;14.48;;;9.20;53.00;;;;;;5029179;28;20441;-70
2022/03/22 08:43:46;;;;;;;22.65;13.98;;;9.30;53.20;;;;;;5029085;28;20034;-73
2022/03/22 08:46:14;;;;;;;24.52;15.80;;;9.30;53.10;;;;;;5028829;28;20048;-70
2022/03/22 08:48:40;;;;;;;22.73;14.60;;;9.40;53.10;;;;;;5011059;28;20167;-73
2022/03/22 08:51:05;;;;;;;23.27;13.98;;;9.50;52.70;;;;;;5029133;28;20370;-74
2022/03/22 08:53:32;;;;;;;27.13;15.18;;;9.60;53.10;;;;;;5026062;28;20061;-69
2022/03/22 08:56:02;;;;;;;25.63;15.43;;;9.70;52.50;;;;;;5010443;28;20519;-71
2022/03/22 08:58:28;;;;;;;23.05;15.13;;;9.80;52.40;;;;;;5009762;28;20045;-73
2022/03/22 09:00:54;;;;;;;32.60;15.73;;;9.90;52.20;;;;;;4990942;28;20042;-70
2022/03/22 09:03:21;;;;;;;29.38;15.73;;;9.90;51.90;;;;;;5010465;28;20033;-70
2022/03/22 09:08:32;;;;;;;23.33;14.43;;;10.00;52.10;;;;;;5011322;28;20473;-70
2022/03/22 09:10:58;;;;;;;26.92;15.20;;;10.10;51.70;;;;;;5007286;28;20038;-72
2022/03/22 09:13:23;;;;;;;24.08;14.50;;;10.10;51.90;;;;;;5009628;28;20029;-70
2022/03/22 09:15:51;;;;;;;24.40;14.60;;;10.20;52.40;;;;;;4990461;28;20121;-70
2022/03/22 09:18:18;;;;;;;25.92;15.10;;;10.20;52.40;;;;;;5008697;28;20025;-70
2022/03/22 09:20:45;;;;;;;22.45;15.00;;;10.30;52.10;;;;;;5026187;28;20038;-70
2022/03/22 09:23:12;;;;;;;25.05;15.23;;;10.30;52.10;;;;;;5010307;28;20041;-70
2022/03/22 09:25:39;;;;;;;22.95;14.55;;;10.30;52.10;;;;;;5028079;28;20080;-70
2022/03/22 09:28:06;;;;;;;26.88;15.32;;;10.40;52.00;;;;;;5009317;28;20117;-71
2022/03/22 09:30:33;;;;;;;23.48;16.08;;;10.40;51.90;;;;;;5009125;28;20022;-70
2022/03/22 09:32:59;;;;;;;24.48;14.95;;;10.50;51.90;;;;;;5010776;28;20068;-71
2022/03/22 09:35:24;;;;;;;21.70;14.45;;;10.60;51.50;;;;;;5028323;28;20056;-70
2022/03/22 09:37:51;;;;;;;21.55;14.55;;;10.60;51.30;;;;;;5009384;28;20276;-70
2022/03/22 09:40:18;;;;;;;23.98;14.18;;;10.70;51.60;;;;;;5002967;28;20045;-70
2022/03/22 09:42:45;;;;;;;24.77;15.77;;;10.80;50.20;;;;;;5027151;28;20087;-70
2022/03/22 09:45:15;;;;;;;25.58;15.60;;;10.90;50.10;;;;;;5010040;28;20030;-70
2022/03/22 09:47:42;;;;;;;22.15;14.30;;;11.00;49.20;;;;;;5007603;28;20069;-70
2022/03/22 09:50:10;;;;;;;20.23;12.32;;;11.10;49.10;;;;;;5025751;28;20511;-71
2022/03/22 09:52:37;;;;;;;19.33;12.95;;;11.30;50.20;;;;;;5025190;28;20025;-71
2022/03/22 09:55:04;;;;;;;22.77;14.45;;;11.50;50.40;;;;;;5011900;28;20056;-71
2022/03/22 09:57:30;;;;;;;35.45;16.15;;;11.50;49.70;;;;;;5010556;28;20112;-70
2022/03/22 10:00:00;;;;;;;26.30;15.63;;;11.70;50.20;;;;;;5024567;28;20176;-70
2022/03/22 10:02:31;;;;;;;22.77;14.60;;;11.80;48.30;;;;;;5025461;28;20046;-70
2022/03/22 10:04:56;;;;;;;20.30;14.77;;;11.90;48.50;;;;;;5008135;28;20045;-70
2022/03/22 10:07:24;;;;;;;21.13;14.48;;;11.90;48.50;;;;;;5026488;28;20471;-73
2022/03/22 10:09:52;;;;;;;22.65;14.38;;;12.00;48.00;;;;;;5006805;28;20083;-73
2022/03/22 10:12:29;;;;;;;20.50;13.82;;;12.10;46.70;;;;;;5006918;28;20603;-70
2022/03/22 10:15:09;;;;;;;21.50;14.38;;;12.20;47.50;;;;;;5024578;28;20032;-70
2022/03/22 10:17:35;;;;;;;26.63;15.38;;;12.30;46.10;;;;;;5028417;28;20029;-72
2022/03/22 10:20:01;;;;;;;23.60;13.82;;;12.40;48.20;;;;;;5003041;28;20022;-70
2022/03/22 10:22:27;;;;;;;22.27;14.27;;;12.60;49.70;;;;;;5026314;28;20056;-70
2022/03/22 10:25:01;;;;;;;29.48;16.33;;;13.00;49.30;;;;;;5008814;28;20037;-71
2022/03/22 10:27:28;;;;;;;22.90;15.57;;;13.10;47.10;;;;;;5027299;28;20492;-73
2022/03/22 10:29:55;;;;;;;22.02;15.27;;;13.00;47.20;;;;;;5027520;28;21199;-70
2022/03/22 10:32:37;;;;;;;19.90;13.93;;;13.10;47.70;;;;;;5008004;28;20072;-73
2022/03/22 10:35:14;;;;;;;23.35;14.82;;;13.10;46.90;;;;;;5026794;28;20033;-70
2022/03/22 10:37:45;;;;;;;23.83;14.00;;;13.10;45.80;;;;;;5027997;28;20026;-71
2022/03/22 10:40:29;;;;;;;17.27;13.18;;;13.10;45.50;;;;;;5007940;28;20160;-73
2022/03/22 10:42:58;;;;;;;19.52;13.43;;;13.20;44.70;;;;;;5008985;28;20057;-70
2022/03/22 10:45:27;;;;;;;18.58;13.75;;;13.20;45.00;;;;;;4992736;28;20558;-70
2022/03/22 10:47:54;;;;;;;22.02;13.63;;;13.30;44.90;;;;;;4994256;28;20052;-70
2022/03/22 10:50:20;;;;;;;20.20;14.88;;;13.30;45.30;;;;;;5025737;28;20080;-73
2022/03/22 10:52:53;;;;;;;21.92;14.30;;;13.40;45.20;;;;;;5028314;28;20033;-70
2022/03/22 10:55:22;;;;;;;23.73;15.43;;;13.50;44.70;;;;;;5030071;28;20133;-73
2022/03/22 10:57:53;;;;;;;18.45;13.75;;;13.60;44.90;;;;;;5010900;28;20083;-70
2022/03/22 11:00:21;;;;;;;22.35;14.55;;;13.60;44.10;;;;;;5011893;28;20121;-70
2022/03/22 11:02:50;;;;;;;21.50;15.27;;;13.60;44.30;;;;;;5013939;28;20057;-73
2022/03/22 11:05:19;;;;;;;23.13;14.70;;;13.80;44.30;;;;;;5013227;28;20053;-73
2022/03/22 11:07:52;;;;;;;21.42;15.18;;;14.00;44.60;;;;;;5010615;28;20025;-70
2022/03/22 11:10:31;;;;;;;24.80;14.98;;;14.30;44.40;;;;;;5012728;28;20034;-74
2022/03/22 11:13:00;;;;;;;19.48;13.63;;;14.70;46.60;;;;;;5025494;28;20108;-70
2022/03/22 11:15:31;;;;;;;19.92;14.10;;;15.40;43.30;;;;;;5029949;28;20055;-70
2022/03/22 11:17:57;;;;;;;19.48;13.80;;;16.90;41.70;;;;;;5010270;28;20047;-70
2022/03/22 11:20:24;;;;;;;21.27;13.60;;;18.80;39.70;;;;;;5025383;28;20842;-71
2022/03/22 11:22:54;;;;;;;20.58;14.60;;;20.80;35.80;;;;;;5009843;28;20030;-76
2022/03/22 11:25:31;;;;;;;19.35;13.68;;;22.10;32.90;;;;;;5012020;28;20037;-71
2022/03/22 11:28:09;;;;;;;15.30;11.90;;;23.10;32.50;;;;;;5011058;28;20537;-70
2022/03/22 11:30:37;;;;;;;19.92;13.90;;;24.10;32.30;;;;;;5028453;28;20104;-69
2022/03/22 11:35:59;;;;;;;18.27;14.27;;;24.70;29.60;;;;;;5012748;28;20493;-70
2022/03/22 11:38:46;;;;;;;17.60;13.50;;;24.80;30.10;;;;;;5029286;28;20087;-70
2022/03/22 11:44:18;;;;;;;22.90;14.63;;;24.40;28.70;;;;;;5029756;28;20032;-70
2022/03/22 11:46:45;;;;;;;18.83;13.75;;;24.00;28.80;;;;;;5013244;28;20741;-71
2022/03/22 11:49:16;;;;;;;18.67;14.95;;;23.70;29.10;;;;;;5029375;28;20025;-69
2022/03/22 11:51:57;;;;;;;20.58;14.88;;;23.70;29.00;;;;;;5030707;28;20029;-71
2022/03/22 11:54:26;;;;;;;19.20;15.02;;;23.50;30.00;;;;;;5031172;28;20532;-72
2022/03/22 11:56:58;;;;;;;18.27;14.25;;;23.00;29.70;;;;;;5028093;28;20034;-71
2022/03/22 11:59:24;;;;;;;20.77;14.27;;;22.30;30.40;;;;;;5026890;28;20424;-72
2022/03/22 12:01:58;;;;;;;21.00;14.90;;;21.50;30.60;;;;;;5012135;28;20022;-75
2022/03/22 12:04:38;;;;;;;18.88;14.05;;;21.00;32.00;;;;;;5029853;28;20523;-72
2022/03/22 12:07:06;;;;;;;18.13;14.60;;;20.40;33.20;;;;;;5029106;28;20039;-72
2022/03/22 12:09:34;;;;;;;18.60;14.48;;;19.90;33.40;;;;;;5009946;28;20029;-72
2022/03/22 12:12:01;;;;;;;18.00;14.65;;;19.50;34.40;;;;;;5024800;28;20029;-71
2022/03/22 12:14:28;;;;;;;22.45;14.70;;;19.20;34.20;;;;;;5025766;28;20512;-72
2022/03/22 12:16:56;;;;;;;18.95;14.73;;;19.20;34.30;;;;;;5031217;28;20060;-72
2022/03/22 12:19:30;;;;;;;18.23;13.63;;;19.30;34.40;;;;;;5013051;28;20044;-74
2022/03/22 12:21:58;;;;;;;20.63;14.43;;;19.40;34.30;;;;;;5011185;28;20042;-72
2022/03/22 12:24:27;;;;;;;18.65;13.90;;;19.40;33.90;;;;;;5030104;28;20416;-72
2022/03/22 12:26:56;;;;;;;19.73;13.95;;;19.60;34.90;;;;;;5027376;28;20408;-72
2022/03/22 12:29:21;;;;;;;20.92;14.95;;;19.80;33.70;;;;;;5025559;28;20100;-72
2022/03/22 12:31:49;;;;;;;18.35;13.73;;;20.00;33.10;;;;;;5023859;28;20029;-75
2022/03/22 12:34:15;;;;;;;16.83;13.93;;;20.20;33.00;;;;;;5012649;28;20032;-71
2022/03/22 12:36:41;;;;;;;21.05;14.70;;;20.20;33.50;;;;;;5028270;28;20036;-72
2022/03/22 12:39:07;;;;;;;22.88;14.40;;;19.90;32.70;;;;;;5029287;28;20424;-71
2022/03/22 12:41:33;;;;;;;16.25;12.45;;;19.50;33.40;;;;;;5029393;28;20061;-72
2022/03/22 12:44:00;;;;;;;18.20;13.18;;;19.20;34.30;;;;;;5029558;28;20022;-75
2022/03/22 12:46:28;;;;;;;20.48;12.90;;;19.00;34.30;;;;;;4992575;28;20032;-72
2022/03/22 12:48:55;;;;;;;19.30;13.43;;;18.70;34.20;;;;;;5029050;28;20030;-71
2022/03/22 12:51:24;;;;;;;18.48;12.32;;;18.40;34.80;;;;;;5028871;28;20053;-72
2022/03/22 12:53:49;;;;;;;21.75;13.68;;;18.20;35.50;;;;;;5028128;28;20043;-72
2022/03/22 12:56:16;;;;;;;15.75;12.07;;;18.10;35.10;;;;;;5010228;28;20026;-76
2022/03/22 12:58:42;;;;;;;16.85;11.77;;;17.80;34.50;;;;;;5010997;28;20022;-75
2022/03/22 13:01:09;;;;;;;19.42;12.85;;;17.60;34.40;;;;;;4993410;28;20030;-70
2022/03/22 13:03:36;;;;;;;16.88;12.93;;;17.40;35.20;;;;;;5009429;28;20083;-74
2022/03/22 13:06:02;;;;;;;17.25;13.00;;;17.40;35.60;;;;;;5028584;28;20029;-74
2022/03/22 13:11:26;;;;;;;20.33;12.55;;;17.30;36.10;;;;;;4994683;28;20026;-71
2022/03/22 13:11:27;;;;;;;15.40;11.10;;;17.20;35.90;;;;;;5028761;28;20033;-71